sensor_id;sensor_type;location;lat;lon;timestamp;temperature;humidity
68433;DHT22;55412;51.350;17.056;2023-04-03T00:00:31;2.20;67.30
68433;DHT22;55412;51.350;17.056;2023-04-03T00:02:57;2.10;67.50
68433;DHT22;55412;51.350;17.056;2023-04-03T00:05:24;2.10;67.70
68433;DHT22;55412;51.350;17.056;2023-04-03T00:07:50;2.10;67.90
68433;DHT22;55412;51.350;17.056;2023-04-03T00:10:16;2.10;67.90
68433;DHT22;55412;51.350;17.056;2023-04-03T00:12:42;2.10;68.30
68433;DHT22;55412;51.350;17.056;2023-04-03T00:15:09;2.10;68.30
68433;DHT22;55412;51.350;17.056;2023-04-03T00:17:35;2.00;68.10
68433;DHT22;55412;51.350;17.056;2023-04-03T00:20:03;2.00;68.20
68433;DHT22;55412;51.350;17.056;2023-04-03T00:22:30;2.00;68.40
68433;DHT22;55412;51.350;17.056;2023-04-03T00:24:56;1.90;68.30
68433;DHT22;55412;51.350;17.056;2023-04-03T00:27:22;1.90;68.60
68433;DHT22;55412;51.350;17.056;2023-04-03T00:29:48;1.90;68.90
68433;DHT22;55412;51.350;17.056;2023-04-03T00:32:14;1.90;68.90
68433;DHT22;55412;51.350;17.056;2023-04-03T00:34:40;1.90;69.00
68433;DHT22;55412;51.350;17.056;2023-04-03T00:37:06;1.90;69.20
68433;DHT22;55412;51.350;17.056;2023-04-03T00:39:32;1.90;69.20
68433;DHT22;55412;51.350;17.056;2023-04-03T00:41:58;1.90;69.20
68433;DHT22;55412;51.350;17.056;2023-04-03T00:47:00;1.90;69.30
68433;DHT22;55412;51.350;17.056;2023-04-03T00:49:28;1.90;69.20
68433;DHT22;55412;51.350;17.056;2023-04-03T00:51:55;1.90;69.40
68433;DHT22;55412;51.350;17.056;2023-04-03T00:54:21;1.90;69.40
68433;DHT22;55412;51.350;17.056;2023-04-03T00:56:49;1.80;69.10
68433;DHT22;55412;51.350;17.056;2023-04-03T00:59:23;1.80;69.40
68433;DHT22;55412;51.350;17.056;2023-04-03T01:01:53;1.80;69.40
68433;DHT22;55412;51.350;17.056;2023-04-03T01:04:41;1.70;69.80
68433;DHT22;55412;51.350;17.056;2023-04-03T01:07:17;1.70;69.90
68433;DHT22;55412;51.350;17.056;2023-04-03T01:09:47;1.70;70.20
68433;DHT22;55412;51.350;17.056;2023-04-03T01:12:17;1.70;70.20
68433;DHT22;55412;51.350;17.056;2023-04-03T01:14:48;1.70;70.40
68433;DHT22;55412;51.350;17.056;2023-04-03T01:17:34;1.70;70.80
68433;DHT22;55412;51.350;17.056;2023-04-03T01:25:40;1.60;71.40
68433;DHT22;55412;51.350;17.056;2023-04-03T01:28:12;1.60;71.30
68433;DHT22;55412;51.350;17.056;2023-04-03T01:33:34;1.60;71.70
68433;DHT22;55412;51.350;17.056;2023-04-03T01:36:01;1.60;71.60
68433;DHT22;55412;51.350;17.056;2023-04-03T01:38:28;1.50;71.60
68433;DHT22;55412;51.350;17.056;2023-04-03T01:40:55;1.60;71.80
68433;DHT22;55412;51.350;17.056;2023-04-03T01:43:21;1.50;72.00
68433;DHT22;55412;51.350;17.056;2023-04-03T01:45:47;1.50;72.10
68433;DHT22;55412;51.350;17.056;2023-04-03T01:48:15;1.50;72.10
68433;DHT22;55412;51.350;17.056;2023-04-03T01:50:42;1.50;72.20
68433;DHT22;55412;51.350;17.056;2023-04-03T01:53:08;1.50;72.20
68433;DHT22;55412;51.350;17.056;2023-04-03T01:55:34;1.50;72.40
68433;DHT22;55412;51.350;17.056;2023-04-03T01:58:00;1.40;72.50
68433;DHT22;55412;51.350;17.056;2023-04-03T02:00:26;1.40;72.50
68433;DHT22;55412;51.350;17.056;2023-04-03T02:02:52;1.40;72.30
68433;DHT22;55412;51.350;17.056;2023-04-03T02:05:18;1.40;72.40
68433;DHT22;55412;51.350;17.056;2023-04-03T02:07:45;1.30;72.60
68433;DHT22;55412;51.350;17.056;2023-04-03T02:10:11;1.30;72.80
68433;DHT22;55412;51.350;17.056;2023-04-03T02:12:37;1.20;72.80
68433;DHT22;55412;51.350;17.056;2023-04-03T02:15:04;1.20;72.90
68433;DHT22;55412;51.350;17.056;2023-04-03T02:17:30;1.20;73.40
68433;DHT22;55412;51.350;17.056;2023-04-03T02:19:56;1.20;73.00
68433;DHT22;55412;51.350;17.056;2023-04-03T02:22:22;1.10;73.40
68433;DHT22;55412;51.350;17.056;2023-04-03T02:24:48;1.10;73.80
68433;DHT22;55412;51.350;17.056;2023-04-03T02:27:15;1.10;73.90
68433;DHT22;55412;51.350;17.056;2023-04-03T02:29:41;1.10;74.10
68433;DHT22;55412;51.350;17.056;2023-04-03T02:32:07;1.10;74.40
68433;DHT22;55412;51.350;17.056;2023-04-03T02:34:33;1.00;74.70
68433;DHT22;55412;51.350;17.056;2023-04-03T02:36:59;1.00;75.00
68433;DHT22;55412;51.350;17.056;2023-04-03T02:39:25;1.00;75.60
68433;DHT22;55412;51.350;17.056;2023-04-03T02:41:51;0.90;75.60
68433;DHT22;55412;51.350;17.056;2023-04-03T02:44:18;0.90;75.40
68433;DHT22;55412;51.350;17.056;2023-04-03T02:46:44;0.90;75.60
68433;DHT22;55412;51.350;17.056;2023-04-03T02:49:10;0.80;75.60
68433;DHT22;55412;51.350;17.056;2023-04-03T02:51:36;0.80;75.60
68433;DHT22;55412;51.350;17.056;2023-04-03T02:54:02;0.70;75.80
68433;DHT22;55412;51.350;17.056;2023-04-03T02:56:28;0.70;76.00
68433;DHT22;55412;51.350;17.056;2023-04-03T02:58:55;0.70;75.80
68433;DHT22;55412;51.350;17.056;2023-04-03T03:01:21;0.70;76.20
68433;DHT22;55412;51.350;17.056;2023-04-03T03:03:47;0.70;75.80
68433;DHT22;55412;51.350;17.056;2023-04-03T03:06:15;0.60;76.10
68433;DHT22;55412;51.350;17.056;2023-04-03T03:08:42;0.60;76.00
68433;DHT22;55412;51.350;17.056;2023-04-03T03:11:09;0.60;75.70
68433;DHT22;55412;51.350;17.056;2023-04-03T03:13:35;0.60;76.40
68433;DHT22;55412;51.350;17.056;2023-04-03T03:16:02;0.60;76.50
68433;DHT22;55412;51.350;17.056;2023-04-03T03:18:29;0.50;76.70
68433;DHT22;55412;51.350;17.056;2023-04-03T03:20:57;0.50;77.20
68433;DHT22;55412;51.350;17.056;2023-04-03T03:23:25;0.40;76.90
68433;DHT22;55412;51.350;17.056;2023-04-03T03:26:00;0.40;77.60
68433;DHT22;55412;51.350;17.056;2023-04-03T03:28:29;0.40;77.50
68433;DHT22;55412;51.350;17.056;2023-04-03T03:30:56;0.30;77.50
68433;DHT22;55412;51.350;17.056;2023-04-03T03:33:23;0.30;77.80
68433;DHT22;55412;51.350;17.056;2023-04-03T03:35:51;0.30;77.50
68433;DHT22;55412;51.350;17.056;2023-04-03T03:38:18;0.20;78.10
68433;DHT22;55412;51.350;17.056;2023-04-03T03:40:46;0.20;78.10
68433;DHT22;55412;51.350;17.056;2023-04-03T03:43:14;0.20;78.30
68433;DHT22;55412;51.350;17.056;2023-04-03T03:45:40;0.20;78.20
68433;DHT22;55412;51.350;17.056;2023-04-03T03:48:06;0.20;77.90
68433;DHT22;55412;51.350;17.056;2023-04-03T03:50:32;0.10;78.40
68433;DHT22;55412;51.350;17.056;2023-04-03T03:52:59;0.00;78.90
68433;DHT22;55412;51.350;17.056;2023-04-03T03:55:26;0.00;78.70
68433;DHT22;55412;51.350;17.056;2023-04-03T03:57:52;0.00;78.80
68433;DHT22;55412;51.350;17.056;2023-04-03T04:00:19;0.00;79.30
68433;DHT22;55412;51.350;17.056;2023-04-03T04:02:45;-0.10;79.20
68433;DHT22;55412;51.350;17.056;2023-04-03T04:05:12;-0.10;78.90
68433;DHT22;55412;51.350;17.056;2023-04-03T04:07:38;-0.10;79.50
68433;DHT22;55412;51.350;17.056;2023-04-03T04:10:04;-0.10;79.10
68433;DHT22;55412;51.350;17.056;2023-04-03T04:12:31;-0.10;78.70
68433;DHT22;55412;51.350;17.056;2023-04-03T04:14:57;-0.10;79.10
68433;DHT22;55412;51.350;17.056;2023-04-03T04:17:23;-0.10;79.10
68433;DHT22;55412;51.350;17.056;2023-04-03T04:19:49;-0.20;79.70
68433;DHT22;55412;51.350;17.056;2023-04-03T04:22:15;-0.20;79.80
68433;DHT22;55412;51.350;17.056;2023-04-03T04:24:41;-0.20;79.80
68433;DHT22;55412;51.350;17.056;2023-04-03T04:27:07;-0.20;79.50
68433;DHT22;55412;51.350;17.056;2023-04-03T04:29:33;-0.20;79.90
68433;DHT22;55412;51.350;17.056;2023-04-03T04:32:02;-0.20;79.90
68433;DHT22;55412;51.350;17.056;2023-04-03T04:34:28;-0.20;79.60
68433;DHT22;55412;51.350;17.056;2023-04-03T04:36:55;-0.20;79.70
68433;DHT22;55412;51.350;17.056;2023-04-03T04:39:21;-0.20;80.00
68433;DHT22;55412;51.350;17.056;2023-04-03T04:41:47;-0.20;80.10
68433;DHT22;55412;51.350;17.056;2023-04-03T04:44:13;-0.20;80.10
68433;DHT22;55412;51.350;17.056;2023-04-03T04:46:40;-0.10;80.30
68433;DHT22;55412;51.350;17.056;2023-04-03T04:49:06;0.00;80.50
68433;DHT22;55412;51.350;17.056;2023-04-03T04:51:32;0.20;80.20
68433;DHT22;55412;51.350;17.056;2023-04-03T04:53:58;0.30;79.70
68433;DHT22;55412;51.350;17.056;2023-04-03T04:56:24;0.50;79.60
68433;DHT22;55412;51.350;17.056;2023-04-03T04:58:50;0.70;78.60
68433;DHT22;55412;51.350;17.056;2023-04-03T05:01:16;1.00;78.20
68433;DHT22;55412;51.350;17.056;2023-04-03T05:03:44;1.20;77.30
68433;DHT22;55412;51.350;17.056;2023-04-03T05:06:10;1.50;75.90
68433;DHT22;55412;51.350;17.056;2023-04-03T05:08:36;1.70;75.10
68433;DHT22;55412;51.350;17.056;2023-04-03T05:11:02;2.00;74.40
68433;DHT22;55412;51.350;17.056;2023-04-03T05:13:28;2.20;73.60
68433;DHT22;55412;51.350;17.056;2023-04-03T05:15:54;2.50;72.50
68433;DHT22;55412;51.350;17.056;2023-04-03T05:18:20;2.80;71.80
68433;DHT22;55412;51.350;17.056;2023-04-03T05:20:48;3.10;70.30
68433;DHT22;55412;51.350;17.056;2023-04-03T05:23:16;3.50;69.10
68433;DHT22;55412;51.350;17.056;2023-04-03T05:25:42;3.80;68.20
68433;DHT22;55412;51.350;17.056;2023-04-03T05:28:11;4.00;67.90
68433;DHT22;55412;51.350;17.056;2023-04-03T05:30:37;4.30;66.00
68433;DHT22;55412;51.350;17.056;2023-04-03T05:33:03;4.50;66.00
68433;DHT22;55412;51.350;17.056;2023-04-03T05:35:29;4.80;64.50
68433;DHT22;55412;51.350;17.056;2023-04-03T05:37:55;5.00;64.30
68433;DHT22;55412;51.350;17.056;2023-04-03T05:40:21;5.30;63.60
68433;DHT22;55412;51.350;17.056;2023-04-03T05:42:47;5.50;63.10
68433;DHT22;55412;51.350;17.056;2023-04-03T05:45:13;5.80;61.60
68433;DHT22;55412;51.350;17.056;2023-04-03T05:47:39;5.90;61.50
68433;DHT22;55412;51.350;17.056;2023-04-03T05:50:06;6.20;61.20
68433;DHT22;55412;51.350;17.056;2023-04-03T05:52:39;6.40;59.20
68433;DHT22;55412;51.350;17.056;2023-04-03T05:55:07;6.60;58.70
68433;DHT22;55412;51.350;17.056;2023-04-03T05:57:33;6.60;57.80
68433;DHT22;55412;51.350;17.056;2023-04-03T05:59:59;6.70;57.30
68433;DHT22;55412;51.350;17.056;2023-04-03T06:02:25;6.80;56.80
68433;DHT22;55412;51.350;17.056;2023-04-03T06:04:52;6.90;57.10
68433;DHT22;55412;51.350;17.056;2023-04-03T06:07:21;6.90;56.20
68433;DHT22;55412;51.350;17.056;2023-04-03T06:09:49;6.80;57.20
68433;DHT22;55412;51.350;17.056;2023-04-03T06:12:17;6.80;57.20
68433;DHT22;55412;51.350;17.056;2023-04-03T06:14:43;6.70;56.90
68433;DHT22;55412;51.350;17.056;2023-04-03T06:17:09;6.60;56.10
68433;DHT22;55412;51.350;17.056;2023-04-03T06:19:37;6.50;56.70
68433;DHT22;55412;51.350;17.056;2023-04-03T06:22:03;6.30;55.90
68433;DHT22;55412;51.350;17.056;2023-04-03T06:24:30;6.20;56.50
68433;DHT22;55412;51.350;17.056;2023-04-03T06:26:57;6.00;57.00
68433;DHT22;55412;51.350;17.056;2023-04-03T06:29:23;5.80;57.00
68433;DHT22;55412;51.350;17.056;2023-04-03T06:31:50;5.70;57.80
68433;DHT22;55412;51.350;17.056;2023-04-03T06:34:17;5.70;58.00
68433;DHT22;55412;51.350;17.056;2023-04-03T06:36:44;5.70;57.90
68433;DHT22;55412;51.350;17.056;2023-04-03T06:39:19;5.70;57.80
68433;DHT22;55412;51.350;17.056;2023-04-03T06:41:46;5.80;58.00
68433;DHT22;55412;51.350;17.056;2023-04-03T06:44:13;6.00;58.30
68433;DHT22;55412;51.350;17.056;2023-04-03T06:46:41;6.10;55.60
68433;DHT22;55412;51.350;17.056;2023-04-03T06:49:08;6.10;56.80
68433;DHT22;55412;51.350;17.056;2023-04-03T06:51:35;6.30;56.10
68433;DHT22;55412;51.350;17.056;2023-04-03T06:54:03;6.30;56.10
68433;DHT22;55412;51.350;17.056;2023-04-03T06:56:31;6.40;55.50
68433;DHT22;55412;51.350;17.056;2023-04-03T06:58:57;6.50;56.20
68433;DHT22;55412;51.350;17.056;2023-04-03T07:01:25;6.70;55.10
68433;DHT22;55412;51.350;17.056;2023-04-03T07:03:53;7.10;54.70
68433;DHT22;55412;51.350;17.056;2023-04-03T07:06:19;7.60;53.50
68433;DHT22;55412;51.350;17.056;2023-04-03T07:08:46;7.90;51.80
68433;DHT22;55412;51.350;17.056;2023-04-03T07:11:14;8.10;51.00
68433;DHT22;55412;51.350;17.056;2023-04-03T07:13:41;8.30;50.30
68433;DHT22;55412;51.350;17.056;2023-04-03T07:16:08;8.80;49.60
68433;DHT22;55412;51.350;17.056;2023-04-03T07:18:35;9.40;49.10
68433;DHT22;55412;51.350;17.056;2023-04-03T07:21:02;10.20;46.20
68433;DHT22;55412;51.350;17.056;2023-04-03T07:23:29;10.90;45.20
68433;DHT22;55412;51.350;17.056;2023-04-03T07:25:55;11.20;44.10
68433;DHT22;55412;51.350;17.056;2023-04-03T07:28:22;11.40;41.70
68433;DHT22;55412;51.350;17.056;2023-04-03T07:30:54;11.10;43.30
68433;DHT22;55412;51.350;17.056;2023-04-03T07:33:26;10.90;42.00
68433;DHT22;55412;51.350;17.056;2023-04-03T07:35:52;10.70;43.10
68433;DHT22;55412;51.350;17.056;2023-04-03T07:38:20;11.00;43.90
68433;DHT22;55412;51.350;17.056;2023-04-03T07:40:50;12.00;43.10
68433;DHT22;55412;51.350;17.056;2023-04-03T07:43:18;13.30;41.00
68433;DHT22;55412;51.350;17.056;2023-04-03T07:45:45;14.60;39.00
68433;DHT22;55412;51.350;17.056;2023-04-03T07:48:15;16.00;38.30
68433;DHT22;55412;51.350;17.056;2023-04-03T07:50:43;17.00;34.50
68433;DHT22;55412;51.350;17.056;2023-04-03T07:53:10;17.50;33.10
68433;DHT22;55412;51.350;17.056;2023-04-03T07:55:36;17.80;32.30
68433;DHT22;55412;51.350;17.056;2023-04-03T07:58:10;18.10;32.70
68433;DHT22;55412;51.350;17.056;2023-04-03T08:00:37;17.80;32.60
68433;DHT22;55412;51.350;17.056;2023-04-03T08:03:04;17.30;32.60
68433;DHT22;55412;51.350;17.056;2023-04-03T08:05:31;16.80;34.10
68433;DHT22;55412;51.350;17.056;2023-04-03T08:08:01;15.90;33.40
68433;DHT22;55412;51.350;17.056;2023-04-03T08:10:30;15.00;35.20
68433;DHT22;55412;51.350;17.056;2023-04-03T08:12:56;14.30;37.20
68433;DHT22;55412;51.350;17.056;2023-04-03T08:15:23;13.60;37.30
68433;DHT22;55412;51.350;17.056;2023-04-03T08:17:50;13.10;40.20
68433;DHT22;55412;51.350;17.056;2023-04-03T08:20:16;12.50;38.70
68433;DHT22;55412;51.350;17.056;2023-04-03T08:22:42;12.10;39.20
68433;DHT22;55412;51.350;17.056;2023-04-03T08:25:09;11.60;40.00
68433;DHT22;55412;51.350;17.056;2023-04-03T08:27:35;11.30;42.50
68433;DHT22;55412;51.350;17.056;2023-04-03T08:30:01;11.10;41.10
68433;DHT22;55412;51.350;17.056;2023-04-03T08:32:28;10.80;40.80
68433;DHT22;55412;51.350;17.056;2023-04-03T08:34:54;10.50;41.80
68433;DHT22;55412;51.350;17.056;2023-04-03T08:37:21;10.30;41.70
68433;DHT22;55412;51.350;17.056;2023-04-03T08:39:47;10.00;41.60
68433;DHT22;55412;51.350;17.056;2023-04-03T08:45:12;9.00;43.90
68433;DHT22;55412;51.350;17.056;2023-04-03T08:47:57;8.80;44.90
68433;DHT22;55412;51.350;17.056;2023-04-03T08:50:31;8.80;46.00
68433;DHT22;55412;51.350;17.056;2023-04-03T08:53:02;8.80;45.20
68433;DHT22;55412;51.350;17.056;2023-04-03T08:55:47;8.80;43.50
68433;DHT22;55412;51.350;17.056;2023-04-03T08:58:29;8.80;42.70
68433;DHT22;55412;51.350;17.056;2023-04-03T09:01:21;8.70;44.00
68433;DHT22;55412;51.350;17.056;2023-04-03T09:03:50;8.60;42.50
68433;DHT22;55412;51.350;17.056;2023-04-03T09:06:25;8.60;44.40
68433;DHT22;55412;51.350;17.056;2023-04-03T09:12:16;8.50;42.30
68433;DHT22;55412;51.350;17.056;2023-04-03T09:15:02;8.50;44.90
68433;DHT22;55412;51.350;17.056;2023-04-03T09:26:26;8.20;44.00
68433;DHT22;55412;51.350;17.056;2023-04-03T09:28:59;8.00;42.20
68433;DHT22;55412;51.350;17.056;2023-04-03T09:31:41;7.80;42.00
68433;DHT22;55412;51.350;17.056;2023-04-03T09:36:52;7.40;42.40
68433;DHT22;55412;51.350;17.056;2023-04-03T09:39:28;7.40;43.10
68433;DHT22;55412;51.350;17.056;2023-04-03T09:42:19;7.50;44.80
68433;DHT22;55412;51.350;17.056;2023-04-03T09:45:02;7.60;42.40
68433;DHT22;55412;51.350;17.056;2023-04-03T09:47:31;7.60;40.90
68433;DHT22;55412;51.350;17.056;2023-04-03T09:52:47;7.40;43.20
68433;DHT22;55412;51.350;17.056;2023-04-03T09:55:27;7.60;45.20
68433;DHT22;55412;51.350;17.056;2023-04-03T09:58:00;7.40;43.40
68433;DHT22;55412;51.350;17.056;2023-04-03T10:00:39;7.20;41.90
68433;DHT22;55412;51.350;17.056;2023-04-03T10:03:24;7.10;45.60
68433;DHT22;55412;51.350;17.056;2023-04-03T10:05:53;7.20;45.50
68433;DHT22;55412;51.350;17.056;2023-04-03T10:08:38;7.10;43.70
68433;DHT22;55412;51.350;17.056;2023-04-03T10:13:57;7.20;43.70
68433;DHT22;55412;51.350;17.056;2023-04-03T10:16:36;7.20;43.20
68433;DHT22;55412;51.350;17.056;2023-04-03T10:19:35;7.10;44.60
68433;DHT22;55412;51.350;17.056;2023-04-03T10:25:38;7.30;42.00
68433;DHT22;55412;51.350;17.056;2023-04-03T10:36:36;7.20;43.70
68433;DHT22;55412;51.350;17.056;2023-04-03T10:42:03;7.50;45.00
68433;DHT22;55412;51.350;17.056;2023-04-03T10:53:17;7.60;41.40
68433;DHT22;55412;51.350;17.056;2023-04-03T10:58:44;7.70;42.60
68433;DHT22;55412;51.350;17.056;2023-04-03T11:01:33;7.50;41.60
68433;DHT22;55412;51.350;17.056;2023-04-03T11:04:02;7.30;42.90
68433;DHT22;55412;51.350;17.056;2023-04-03T11:06:37;7.30;41.70
68433;DHT22;55412;51.350;17.056;2023-04-03T11:09:27;7.30;42.10
68433;DHT22;55412;51.350;17.056;2023-04-03T11:12:06;7.30;40.00
68433;DHT22;55412;51.350;17.056;2023-04-03T11:14:53;7.10;40.80
68433;DHT22;55412;51.350;17.056;2023-04-03T11:17:23;6.90;41.60
68433;DHT22;55412;51.350;17.056;2023-04-03T11:22:47;6.80;40.60
68433;DHT22;55412;51.350;17.056;2023-04-03T11:25:24;6.80;41.70
68433;DHT22;55412;51.350;17.056;2023-04-03T11:34:05;7.10;38.60
68433;DHT22;55412;51.350;17.056;2023-04-03T11:36:50;7.20;39.50
68433;DHT22;55412;51.350;17.056;2023-04-03T11:42:33;6.70;43.60
68433;DHT22;55412;51.350;17.056;2023-04-03T11:47:56;6.90;45.10
68433;DHT22;55412;51.350;17.056;2023-04-03T11:50:43;7.00;43.10
68433;DHT22;55412;51.350;17.056;2023-04-03T11:58:16;6.90;42.00
68433;DHT22;55412;51.350;17.056;2023-04-03T12:00:52;6.90;41.80
68433;DHT22;55412;51.350;17.056;2023-04-03T12:46:44;6.40;41.90
68433;DHT22;55412;51.350;17.056;2023-04-03T12:51:54;6.50;41.00
68433;DHT22;55412;51.350;17.056;2023-04-03T12:54:47;6.60;41.10
68433;DHT22;55412;51.350;17.056;2023-04-03T12:57:25;6.70;41.30
68433;DHT22;55412;51.350;17.056;2023-04-03T12:59:53;6.60;40.20
68433;DHT22;55412;51.350;17.056;2023-04-03T13:02:30;6.60;40.20
68433;DHT22;55412;51.350;17.056;2023-04-03T13:05:06;6.50;38.40
68433;DHT22;55412;51.350;17.056;2023-04-03T13:07:37;6.40;38.90
68433;DHT22;55412;51.350;17.056;2023-04-03T13:12:34;6.30;39.70
68433;DHT22;55412;51.350;17.056;2023-04-03T13:15:17;6.30;40.40
68433;DHT22;55412;51.350;17.056;2023-04-03T13:17:44;6.40;40.30
68433;DHT22;55412;51.350;17.056;2023-04-03T13:20:17;6.40;39.60
68433;DHT22;55412;51.350;17.056;2023-04-03T13:23:02;6.40;39.60
68433;DHT22;55412;51.350;17.056;2023-04-03T13:25:36;6.30;39.70
68433;DHT22;55412;51.350;17.056;2023-04-03T13:28:09;6.30;39.50
68433;DHT22;55412;51.350;17.056;2023-04-03T13:30:39;6.40;40.10
68433;DHT22;55412;51.350;17.056;2023-04-03T13:33:21;6.50;39.30
68433;DHT22;55412;51.350;17.056;2023-04-03T13:35:55;6.50;38.50
68433;DHT22;55412;51.350;17.056;2023-04-03T13:38:31;6.40;39.50
68433;DHT22;55412;51.350;17.056;2023-04-03T13:41:20;6.40;39.10
68433;DHT22;55412;51.350;17.056;2023-04-03T13:43:49;6.40;38.80
68433;DHT22;55412;51.350;17.056;2023-04-03T13:48:47;6.40;39.50
68433;DHT22;55412;51.350;17.056;2023-04-03T13:51:38;6.30;38.00
68433;DHT22;55412;51.350;17.056;2023-04-03T13:54:23;6.10;37.00
68433;DHT22;55412;51.350;17.056;2023-04-03T13:56:57;5.90;37.20
68433;DHT22;55412;51.350;17.056;2023-04-03T13:59:33;5.80;39.00
68433;DHT22;55412;51.350;17.056;2023-04-03T14:07:14;5.80;41.60
68433;DHT22;55412;51.350;17.056;2023-04-03T14:09:41;6.00;40.90
68433;DHT22;55412;51.350;17.056;2023-04-03T14:12:26;6.00;39.30
68433;DHT22;55412;51.350;17.056;2023-04-03T14:14:54;6.00;39.10
68433;DHT22;55412;51.350;17.056;2023-04-03T14:17:24;5.90;40.50
68433;DHT22;55412;51.350;17.056;2023-04-03T14:19:51;5.90;41.50
68433;DHT22;55412;51.350;17.056;2023-04-03T14:22:21;6.00;40.30
68433;DHT22;55412;51.350;17.056;2023-04-03T14:24:50;5.90;40.70
68433;DHT22;55412;51.350;17.056;2023-04-03T14:27:18;5.90;40.90
68433;DHT22;55412;51.350;17.056;2023-04-03T14:29:57;5.90;40.90
68433;DHT22;55412;51.350;17.056;2023-04-03T14:32:24;5.90;41.00
68433;DHT22;55412;51.350;17.056;2023-04-03T14:34:51;5.90;40.90
68433;DHT22;55412;51.350;17.056;2023-04-03T14:37:23;5.90;40.80
68433;DHT22;55412;51.350;17.056;2023-04-03T14:39:53;5.80;40.30
68433;DHT22;55412;51.350;17.056;2023-04-03T14:42:23;5.50;40.80
68433;DHT22;55412;51.350;17.056;2023-04-03T14:44:58;5.30;42.20
68433;DHT22;55412;51.350;17.056;2023-04-03T14:47:28;5.20;42.00
68433;DHT22;55412;51.350;17.056;2023-04-03T14:49:55;5.20;43.00
68433;DHT22;55412;51.350;17.056;2023-04-03T14:52:26;5.20;42.80
68433;DHT22;55412;51.350;17.056;2023-04-03T14:55:01;5.30;43.40
68433;DHT22;55412;51.350;17.056;2023-04-03T14:57:29;5.30;42.50
68433;DHT22;55412;51.350;17.056;2023-04-03T14:59:55;5.40;41.80
68433;DHT22;55412;51.350;17.056;2023-04-03T15:02:38;5.40;42.40
68433;DHT22;55412;51.350;17.056;2023-04-03T15:05:06;5.40;42.60
68433;DHT22;55412;51.350;17.056;2023-04-03T15:07:55;5.40;43.50
68433;DHT22;55412;51.350;17.056;2023-04-03T15:10:27;5.40;43.90
68433;DHT22;55412;51.350;17.056;2023-04-03T15:12:56;5.40;42.50
68433;DHT22;55412;51.350;17.056;2023-04-03T15:15:23;5.30;42.70
68433;DHT22;55412;51.350;17.056;2023-04-03T15:17:54;5.30;42.80
68433;DHT22;55412;51.350;17.056;2023-04-03T15:20:25;5.40;43.40
68433;DHT22;55412;51.350;17.056;2023-04-03T15:22:53;5.40;42.80
68433;DHT22;55412;51.350;17.056;2023-04-03T15:25:21;5.40;43.10
68433;DHT22;55412;51.350;17.056;2023-04-03T15:27:47;5.30;44.00
68433;DHT22;55412;51.350;17.056;2023-04-03T15:30:16;5.30;44.10
68433;DHT22;55412;51.350;17.056;2023-04-03T15:32:43;5.30;44.20
68433;DHT22;55412;51.350;17.056;2023-04-03T15:35:09;5.20;44.30
68433;DHT22;55412;51.350;17.056;2023-04-03T15:37:36;5.20;44.60
68433;DHT22;55412;51.350;17.056;2023-04-03T15:40:06;5.10;45.00
68433;DHT22;55412;51.350;17.056;2023-04-03T15:42:33;5.10;46.10
68433;DHT22;55412;51.350;17.056;2023-04-03T15:44:59;5.00;45.30
68433;DHT22;55412;51.350;17.056;2023-04-03T15:47:26;5.00;45.60
68433;DHT22;55412;51.350;17.056;2023-04-03T15:49:53;4.90;44.90
68433;DHT22;55412;51.350;17.056;2023-04-03T15:52:20;4.90;44.50
68433;DHT22;55412;51.350;17.056;2023-04-03T15:54:46;4.90;45.60
68433;DHT22;55412;51.350;17.056;2023-04-03T15:57:12;4.90;46.10
68433;DHT22;55412;51.350;17.056;2023-04-03T15:59:38;4.80;45.30
68433;DHT22;55412;51.350;17.056;2023-04-03T16:02:06;4.80;45.50
68433;DHT22;55412;51.350;17.056;2023-04-03T16:04:34;4.80;46.20
68433;DHT22;55412;51.350;17.056;2023-04-03T16:07:02;4.80;46.20
68433;DHT22;55412;51.350;17.056;2023-04-03T16:09:30;4.80;46.30
68433;DHT22;55412;51.350;17.056;2023-04-03T16:11:57;4.80;46.10
68433;DHT22;55412;51.350;17.056;2023-04-03T16:14:23;4.70;45.80
68433;DHT22;55412;51.350;17.056;2023-04-03T16:16:49;4.60;45.60
68433;DHT22;55412;51.350;17.056;2023-04-03T16:19:15;4.60;46.10
68433;DHT22;55412;51.350;17.056;2023-04-03T16:21:41;4.60;46.40
68433;DHT22;55412;51.350;17.056;2023-04-03T16:24:08;4.60;45.50
68433;DHT22;55412;51.350;17.056;2023-04-03T16:26:34;4.60;44.50
68433;DHT22;55412;51.350;17.056;2023-04-03T16:29:01;4.50;45.60
68433;DHT22;55412;51.350;17.056;2023-04-03T16:31:27;4.50;45.80
68433;DHT22;55412;51.350;17.056;2023-04-03T16:33:55;4.50;45.30
68433;DHT22;55412;51.350;17.056;2023-04-03T16:36:21;4.40;46.20
68433;DHT22;55412;51.350;17.056;2023-04-03T16:38:47;4.40;46.20
68433;DHT22;55412;51.350;17.056;2023-04-03T16:41:14;4.30;45.60
68433;DHT22;55412;51.350;17.056;2023-04-03T16:43:39;4.30;45.70
68433;DHT22;55412;51.350;17.056;2023-04-03T16:46:06;4.20;45.10
68433;DHT22;55412;51.350;17.056;2023-04-03T16:48:32;4.20;45.90
68433;DHT22;55412;51.350;17.056;2023-04-03T16:50:58;4.20;46.80
68433;DHT22;55412;51.350;17.056;2023-04-03T16:53:25;4.30;47.30
68433;DHT22;55412;51.350;17.056;2023-04-03T16:55:52;4.30;46.10
68433;DHT22;55412;51.350;17.056;2023-04-03T16:58:19;4.30;45.40
68433;DHT22;55412;51.350;17.056;2023-04-03T17:00:45;4.30;45.90
68433;DHT22;55412;51.350;17.056;2023-04-03T17:03:12;4.30;46.20
68433;DHT22;55412;51.350;17.056;2023-04-03T17:05:39;4.20;45.50
68433;DHT22;55412;51.350;17.056;2023-04-03T17:08:05;4.20;46.00
68433;DHT22;55412;51.350;17.056;2023-04-03T17:10:31;4.30;45.90
68433;DHT22;55412;51.350;17.056;2023-04-03T17:12:59;4.30;46.00
68433;DHT22;55412;51.350;17.056;2023-04-03T17:15:25;4.30;46.50
68433;DHT22;55412;51.350;17.056;2023-04-03T17:17:51;4.30;46.90
68433;DHT22;55412;51.350;17.056;2023-04-03T17:20:18;4.30;46.90
68433;DHT22;55412;51.350;17.056;2023-04-03T17:22:45;4.30;46.90
68433;DHT22;55412;51.350;17.056;2023-04-03T17:25:11;4.30;47.00
68433;DHT22;55412;51.350;17.056;2023-04-03T17:27:38;4.30;47.80
68433;DHT22;55412;51.350;17.056;2023-04-03T17:30:05;4.30;47.40
68433;DHT22;55412;51.350;17.056;2023-04-03T17:32:32;4.30;47.40
68433;DHT22;55412;51.350;17.056;2023-04-03T17:35:00;4.30;47.80
68433;DHT22;55412;51.350;17.056;2023-04-03T17:37:27;4.30;47.40
68433;DHT22;55412;51.350;17.056;2023-04-03T17:39:53;4.30;47.80
68433;DHT22;55412;51.350;17.056;2023-04-03T17:42:19;4.30;48.00
68433;DHT22;55412;51.350;17.056;2023-04-03T17:44:45;4.30;48.60
68433;DHT22;55412;51.350;17.056;2023-04-03T17:47:11;4.40;48.60
68433;DHT22;55412;51.350;17.056;2023-04-03T17:49:37;4.40;48.60
68433;DHT22;55412;51.350;17.056;2023-04-03T17:52:03;4.40;48.90
68433;DHT22;55412;51.350;17.056;2023-04-03T17:54:30;4.40;48.10
68433;DHT22;55412;51.350;17.056;2023-04-03T17:56:56;4.40;48.50
68433;DHT22;55412;51.350;17.056;2023-04-03T17:59:22;4.40;48.50